Time;durP1;ratioP1;P1;durP2;ratioP2;P2;SDS_P1;SDS_P2;PMS_P1;PMS_P2;Temp;Humidity;BMP_temperature;BMP_pressure;BME280_temperature;BME280_humidity;BME280_pressure;Samples;Min_cycle;Max_cycle;Signal;HPM_P1;HPM_P2
2022/02/09 00:03:45;;;;;;;5.35;2.95;;;;;;;;;;5007178;28;20516;-72
2022/02/09 00:06:15;;;;;;;7.22;3.30;;;;;;;;;;5010192;28;20376;-73
2022/02/09 00:08:40;;;;;;;7.13;3.60;;;;;;;;;;5010664;28;20414;-73
2022/02/09 00:11:07;;;;;;;5.38;3.10;;;;;;;;;;5011021;28;20125;-71
2022/02/09 00:16:09;;;;;;;6.60;3.25;;;;;;;;;;5015052;28;20034;-74
2022/02/09 00:23:58;;;;;;;6.65;3.03;;;;;;;;;;5004398;28;20029;-72
2022/02/09 00:27:09;;;;;;;5.97;2.90;;;;;;;;;;5007750;28;20140;-73
2022/02/09 00:35:14;;;;;;;5.03;2.65;;;;;;;;;;4948280;29;20042;-72
2022/02/09 00:38:12;;;;;;;5.25;2.80;;;;;;;;;;4948177;28;20027;-73
2022/02/09 00:40:51;;;;;;;5.22;2.40;;;;;;;;;;4947500;28;20079;-73
2022/02/09 01:03:07;;;;;;;3.70;2.15;;;;;;;;;;4926355;29;20409;-74
2022/02/09 01:55:26;;;;;;;3.90;2.15;;;;;;;;;;5011912;28;20699;-73
2022/02/09 01:56:50;;;;;;;3.72;2.20;;;;;;;;;;5006157;28;20036;-73
2022/02/09 01:59:15;;;;;;;5.07;2.17;;;;;;;;;;5010533;28;20034;-72
2022/02/09 02:01:40;;;;;;;7.07;2.38;;;;;;;;;;5008787;28;20025;-74
2022/02/09 02:04:05;;;;;;;3.13;1.80;;;;;;;;;;5010028;28;20041;-72
2022/02/09 02:06:32;;;;;;;3.55;2.08;;;;;;;;;;5011289;28;20026;-74
2022/02/09 02:08:58;;;;;;;4.63;2.33;;;;;;;;;;5009104;28;20033;-74
2022/02/09 02:11:28;;;;;;;4.70;2.33;;;;;;;;;;5008997;28;20030;-74
2022/02/09 02:14:12;;;;;;;3.58;1.85;;;;;;;;;;5011298;28;20026;-75
2022/02/09 02:16:42;;;;;;;2.95;1.90;;;;;;;;;;5006206;28;20374;-72
2022/02/09 02:19:25;;;;;;;4.82;1.90;;;;;;;;;;5007989;28;20030;-73
2022/02/09 02:26:57;;;;;;;4.38;1.98;;;;;;;;;;5009120;28;21138;-73
2022/02/09 02:37:09;;;;;;;3.42;1.75;;;;;;;;;;5010359;28;20083;-74
2022/02/09 03:14:45;;;;;;;2.83;1.35;;;;;;;;;;5007833;28;20033;-72
2022/02/09 03:17:16;;;;;;;3.92;1.40;;;;;;;;;;5009610;28;20032;-73
2022/02/09 03:19:49;;;;;;;1.83;1.25;;;;;;;;;;5009411;28;20029;-73
2022/02/09 03:22:21;;;;;;;2.63;1.20;;;;;;;;;;5015053;28;20461;-72
2022/02/09 03:27:31;;;;;;;2.58;1.20;;;;;;;;;;5009110;28;20197;-72
2022/02/09 03:49:11;;;;;;;2.78;1.50;;;;;;;;;;4949309;29;20083;-72
2022/02/09 03:51:54;;;;;;;;;;;;;;;;;;4949617;29;20058;-73
2022/02/09 03:57:10;;;;;;;2.95;1.30;;;;;;;;;;4949143;29;20569;-73
2022/02/09 03:59:35;;;;;;;4.10;1.77;;;;;;;;;;4947510;29;20035;-72
2022/02/09 04:02:00;;;;;;;2.67;1.17;;;;;;;;;;4932548;29;20027;-74
2022/02/09 04:04:26;;;;;;;2.65;1.40;;;;;;;;;;4948727;29;20038;-72
2022/02/09 04:06:52;;;;;;;2.60;1.20;;;;;;;;;;4951403;29;20034;-74
2022/02/09 04:09:20;;;;;;;2.47;1.15;;;;;;;;;;4949330;29;20030;-73
2022/02/09 04:12:02;;;;;;;2.53;1.45;;;;;;;;;;4947951;29;20035;-72
2022/02/09 04:14:36;;;;;;;3.50;1.42;;;;;;;;;;4949472;29;20027;-72
2022/02/09 04:17:15;;;;;;;2.67;1.45;;;;;;;;;;4948580;28;20114;-73
2022/02/09 04:20:06;;;;;;;3.30;1.60;;;;;;;;;;4947889;29;20114;-73
2022/02/09 04:36:14;;;;;;;3.47;1.45;;;;;;;;;;4929387;29;20062;-73
2022/02/09 04:49:21;;;;;;;2.53;1.23;;;;;;;;;;4929750;29;20184;-73
2022/02/09 04:54:30;;;;;;;3.05;1.50;;;;;;;;;;4928155;29;20131;-72
2022/02/09 04:57:27;;;;;;;2.92;1.52;;;;;;;;;;4927866;29;20126;-73
2022/02/09 05:00:09;;;;;;;4.70;1.42;;;;;;;;;;4926449;29;20043;-73
2022/02/09 05:03:27;;;;;;;3.97;1.67;;;;;;;;;;4977090;28;20033;-73
2022/02/09 05:27:19;;;;;;;2.95;1.35;;;;;;;;;;4943813;29;20031;-74
2022/02/09 05:29:44;;;;;;;4.57;1.70;;;;;;;;;;4940944;29;20043;-76
2022/02/09 05:32:09;;;;;;;3.60;1.73;;;;;;;;;;4932292;29;20043;-76
2022/02/09 05:34:34;;;;;;;3.35;1.52;;;;;;;;;;4947628;29;20042;-75
2022/02/09 05:37:01;;;;;;;3.72;1.73;;;;;;;;;;4944694;28;20691;-74
2022/02/09 05:39:26;;;;;;;3.15;1.70;;;;;;;;;;4943798;29;20031;-76
2022/02/09 05:41:51;;;;;;;4.88;1.48;;;;;;;;;;4947610;29;20143;-73
2022/02/09 05:44:16;;;;;;;3.40;1.90;;;;;;;;;;4944059;29;20031;-74
2022/02/09 05:51:59;;;;;;;2.63;1.70;;;;;;;;;;4957550;28;20057;-76
2022/02/09 05:59:59;;;;;;;3.83;1.60;;;;;;;;;;4953168;28;20026;-75
2022/02/09 06:02:25;;;;;;;3.97;1.67;;;;;;;;;;4946956;28;20031;-77
2022/02/09 06:04:50;;;;;;;6.28;2.15;;;;;;;;;;4951243;28;20454;-75
2022/02/09 06:07:19;;;;;;;4.30;1.98;;;;;;;;;;4951554;28;20065;-77
2022/02/09 06:09:45;;;;;;;3.45;1.80;;;;;;;;;;4954256;28;20047;-75
2022/02/09 06:20:04;;;;;;;4.13;1.90;;;;;;;;;;4956419;28;20115;-78
2022/02/09 06:22:29;;;;;;;4.00;1.80;;;;;;;;;;4953745;29;20039;-78
2022/02/09 06:24:54;;;;;;;3.88;2.20;;;;;;;;;;4953280;28;20039;-76
2022/02/09 06:27:20;;;;;;;4.98;2.18;;;;;;;;;;4952875;29;20034;-78
2022/02/09 06:29:47;;;;;;;3.15;1.95;;;;;;;;;;4952497;28;20098;-76
2022/02/09 06:32:13;;;;;;;5.20;2.10;;;;;;;;;;4953862;28;20035;-77
2022/02/09 06:34:39;;;;;;;4.40;2.00;;;;;;;;;;4961838;28;20027;-76
2022/02/09 06:37:24;;;;;;;3.72;2.03;;;;;;;;;;5011928;28;20030;-80
2022/02/09 06:39:56;;;;;;;4.25;1.75;;;;;;;;;;5012463;28;20026;-77
2022/02/09 06:42:23;;;;;;;4.25;1.63;;;;;;;;;;5013384;28;20029;-78
2022/02/09 06:44:52;;;;;;;5.00;1.70;;;;;;;;;;5012117;28;20029;-77
2022/02/09 06:47:22;;;;;;;5.10;1.70;;;;;;;;;;5004384;28;20380;-78
2022/02/09 06:49:55;;;;;;;4.30;1.60;;;;;;;;;;5012523;28;20132;-78
2022/02/09 06:52:20;;;;;;;4.05;1.73;;;;;;;;;;5012363;28;20045;-77
2022/02/09 06:55:05;;;;;;;3.80;1.65;;;;;;;;;;5008640;28;20152;-77
2022/02/09 06:57:45;;;;;;;5.80;1.85;;;;;;;;;;5010962;28;20847;-76
2022/02/09 07:00:10;;;;;;;3.83;1.70;;;;;;;;;;5009788;28;20025;-78
2022/02/09 07:02:40;;;;;;;4.75;1.90;;;;;;;;;;5009931;28;20382;-76
2022/02/09 07:05:06;;;;;;;4.90;1.65;;;;;;;;;;5009840;28;20026;-77
2022/02/09 07:07:31;;;;;;;4.32;1.85;;;;;;;;;;5011585;28;20048;-77
2022/02/09 07:09:56;;;;;;;3.40;1.73;;;;;;;;;;5005608;28;20036;-76
2022/02/09 07:12:21;;;;;;;6.40;2.10;;;;;;;;;;5002575;28;20025;-80
2022/02/09 07:14:48;;;;;;;4.80;2.10;;;;;;;;;;5005353;28;20389;-77
2022/02/09 07:17:13;;;;;;;3.20;1.35;;;;;;;;;;5010398;28;20062;-77
2022/02/09 07:19:42;;;;;;;4.13;1.60;;;;;;;;;;5011320;28;20053;-77
2022/02/09 07:22:07;;;;;;;4.68;1.40;;;;;;;;;;5015845;28;20022;-76
2022/02/09 07:24:32;;;;;;;3.75;1.63;;;;;;;;;;5016312;28;20086;-77
2022/02/09 07:27:23;;;;;;;4.38;1.50;;;;;;;;;;5014200;28;20501;-78
2022/02/09 07:29:46;;;;;;;3.95;1.30;;;;;;;;;;5008920;28;20064;-78
2022/02/09 07:32:11;;;;;;;5.93;2.10;;;;;;;;;;5011334;28;20558;-77
2022/02/09 07:34:36;;;;;;;2.70;1.40;;;;;;;;;;5010060;28;20029;-77
2022/02/09 07:37:01;;;;;;;2.83;1.52;;;;;;;;;;5003629;28;20025;-76
2022/02/09 07:39:26;;;;;;;3.80;1.45;;;;;;;;;;5005003;28;20030;-78
2022/02/09 07:41:54;;;;;;;3.05;1.52;;;;;;;;;;5008231;28;20156;-78
2022/02/09 07:44:34;;;;;;;3.67;1.70;;;;;;;;;;5015050;28;20045;-76
2022/02/09 07:49:52;;;;;;;5.47;1.52;;;;;;;;;;5012171;28;20112;-76
2022/02/09 07:52:24;;;;;;;5.28;1.80;;;;;;;;;;5008575;28;20645;-76
2022/02/09 07:54:50;;;;;;;4.68;1.92;;;;;;;;;;5014190;28;20382;-77
2022/02/09 07:57:15;;;;;;;4.50;1.70;;;;;;;;;;5014244;28;20127;-76
2022/02/09 07:59:40;;;;;;;5.53;1.50;;;;;;;;;;5012050;28;20022;-75
2022/02/09 08:02:06;;;;;;;2.88;1.40;;;;;;;;;;5013092;28;20014;-77
2022/02/09 08:04:31;;;;;;;2.45;1.10;;;;;;;;;;5018267;28;20029;-77
2022/02/09 08:06:57;;;;;;;2.55;1.30;;;;;;;;;;5017618;28;20085;-77
2022/02/09 08:09:36;;;;;;;2.25;1.50;;;;;;;;;;5013542;28;20017;-77
2022/02/09 08:12:29;;;;;;;2.05;1.13;;;;;;;;;;5013793;28;20366;-75
2022/02/09 08:20:34;;;;;;;7.20;3.60;;;;;;;;;;5016741;28;20060;-78
2022/02/09 08:33:17;;;;;;;2.85;1.10;;;;;;;;;;5014259;28;20018;-76
2022/02/09 08:35:44;;;;;;;1.75;1.00;;;;;;;;;;5013646;28;20029;-77
2022/02/09 08:38:09;;;;;;;2.42;1.20;;;;;;;;;;5015961;28;20052;-78
2022/02/09 08:40:35;;;;;;;2.45;1.10;;;;;;;;;;5021269;28;20081;-78
2022/02/09 08:43:00;;;;;;;4.07;1.02;;;;;;;;;;5021853;28;20089;-78
2022/02/09 08:45:27;;;;;;;2.83;0.90;;;;;;;;;;5021126;28;20108;-77
2022/02/09 08:47:52;;;;;;;1.88;1.00;;;;;;;;;;5011351;28;20122;-79
2022/02/09 08:50:18;;;;;;;2.92;1.10;;;;;;;;;;5010459;28;20049;-79
2022/02/09 08:52:43;;;;;;;3.50;1.10;;;;;;;;;;5011393;28;20477;-76
2022/02/09 08:55:09;;;;;;;3.67;1.20;;;;;;;;;;5006475;28;20077;-75
2022/02/09 08:57:35;;;;;;;2.90;1.27;;;;;;;;;;5008186;28;20022;-77
2022/02/09 09:00:08;;;;;;;2.53;1.10;;;;;;;;;;5012650;28;20088;-78
2022/02/09 09:02:34;;;;;;;2.70;1.00;;;;;;;;;;5006160;28;20026;-77
2022/02/09 09:05:11;;;;;;;3.20;1.25;;;;;;;;;;5019222;28;20022;-76
2022/02/09 09:07:39;;;;;;;1.75;0.82;;;;;;;;;;5012172;28;20037;-76
2022/02/09 09:10:17;;;;;;;3.38;1.17;;;;;;;;;;5011703;28;20030;-74
2022/02/09 09:18:51;;;;;;;4.10;1.20;;;;;;;;;;5012492;28;20026;-73
2022/02/09 10:04:41;;;;;;;2.00;1.23;;;;;;;;;;4952041;29;20030;-74
2022/02/09 10:37:46;;;;;;;1.85;0.80;;;;;;;;;;5014066;28;20029;-74
2022/02/09 10:40:32;;;;;;;1.33;0.82;;;;;;;;;;5013641;28;20124;-75
2022/02/09 10:43:01;;;;;;;2.28;0.90;;;;;;;;;;5014841;28;20021;-74
2022/02/09 10:45:47;;;;;;;1.65;0.80;;;;;;;;;;5013049;28;20087;-73
2022/02/09 10:48:35;;;;;;;2.17;1.00;;;;;;;;;;4998758;28;20536;-76
2022/02/09 10:51:22;;;;;;;1.20;0.80;;;;;;;;;;5011529;28;20750;-74
2022/02/09 10:54:21;;;;;;;1.73;1.00;;;;;;;;;;5011955;28;20042;-75
2022/02/09 10:56:47;;;;;;;2.15;1.13;;;;;;;;;;4916331;29;20036;-73
2022/02/09 10:59:14;;;;;;;1.48;0.80;;;;;;;;;;4923768;29;20036;-74
2022/02/09 11:01:40;;;;;;;1.75;0.90;;;;;;;;;;4915527;29;20038;-74
2022/02/09 11:04:06;;;;;;;1.33;0.77;;;;;;;;;;4924658;29;20040;-75
2022/02/09 11:06:33;;;;;;;3.28;1.10;;;;;;;;;;4930764;29;20032;-74
2022/02/09 11:08:58;;;;;;;0.80;0.70;;;;;;;;;;4921979;29;20155;-74
2022/02/09 11:11:23;;;;;;;1.92;1.00;;;;;;;;;;4930953;29;20333;-74
2022/02/09 11:13:49;;;;;;;1.25;0.80;;;;;;;;;;4911979;29;20124;-75
2022/02/09 11:16:16;;;;;;;1.05;0.73;;;;;;;;;;4909233;29;20601;-74
2022/02/09 11:18:42;;;;;;;1.90;0.70;;;;;;;;;;4923024;29;20032;-77
2022/02/09 11:21:11;;;;;;;2.72;1.10;;;;;;;;;;4918241;29;20099;-75
2022/02/09 11:23:37;;;;;;;1.13;0.80;;;;;;;;;;4925866;29;20468;-74
2022/02/09 11:26:10;;;;;;;1.65;0.90;;;;;;;;;;4924289;29;20042;-74
2022/02/09 11:28:40;;;;;;;2.92;1.00;;;;;;;;;;4929323;29;20255;-74
2022/02/09 11:31:20;;;;;;;2.22;0.68;;;;;;;;;;4930822;29;20188;-73
2022/02/09 11:33:54;;;;;;;1.50;0.70;;;;;;;;;;5006471;28;20026;-75
2022/02/09 11:36:31;;;;;;;2.03;0.80;;;;;;;;;;5011339;28;20022;-73
2022/02/09 11:39:04;;;;;;;2.15;0.98;;;;;;;;;;5011385;28;20022;-74
2022/02/09 11:41:49;;;;;;;1.70;0.90;;;;;;;;;;5011764;28;20118;-75
2022/02/09 11:44:33;;;;;;;2.80;0.82;;;;;;;;;;5011026;28;20026;-75
2022/02/09 11:47:22;;;;;;;2.83;0.80;;;;;;;;;;5011620;28;20026;-78
2022/02/09 12:09:42;;;;;;;1.58;0.88;;;;;;;;;;4947875;29;20034;-75
2022/02/09 12:12:16;;;;;;;1.48;0.80;;;;;;;;;;4949736;29;20035;-75
2022/02/09 12:14:59;;;;;;;1.55;0.82;;;;;;;;;;4951893;29;20033;-78
2022/02/09 12:20:08;;;;;;;3.33;0.63;;;;;;;;;;4950572;29;20042;-76
2022/02/09 12:22:43;;;;;;;1.58;0.55;;;;;;;;;;4948487;29;20511;-77
2022/02/09 12:25:09;;;;;;;1.77;0.77;;;;;;;;;;4949547;29;20448;-76
2022/02/09 12:27:34;;;;;;;4.72;0.70;;;;;;;;;;4950414;29;20074;-76
2022/02/09 12:30:03;;;;;;;3.78;0.70;;;;;;;;;;4980908;28;20089;-75
2022/02/09 12:32:29;;;;;;;1.58;0.63;;;;;;;;;;4984816;28;20110;-74
2022/02/09 12:34:57;;;;;;;1.70;0.60;;;;;;;;;;5010694;28;20504;-75
2022/02/09 12:37:22;;;;;;;0.60;0.60;;;;;;;;;;5010966;28;20389;-75
2022/02/09 12:39:47;;;;;;;0.65;0.32;;;;;;;;;;5019839;28;20014;-76
2022/02/09 12:42:14;;;;;;;2.17;0.40;;;;;;;;;;5010825;28;20416;-75
2022/02/09 12:44:39;;;;;;;2.88;0.60;;;;;;;;;;5013392;28;20257;-73
2022/02/09 12:47:05;;;;;;;0.85;0.47;;;;;;;;;;5011759;28;20129;-75
2022/02/09 12:49:30;;;;;;;1.08;0.55;;;;;;;;;;5010993;28;20108;-74
2022/02/09 12:51:56;;;;;;;2.05;0.77;;;;;;;;;;5009758;28;20544;-74
2022/02/09 12:54:22;;;;;;;1.42;0.70;;;;;;;;;;5009854;28;20042;-75
2022/02/09 12:56:48;;;;;;;1.50;0.70;;;;;;;;;;5010525;28;20091;-78
2022/02/09 12:59:15;;;;;;;1.45;0.70;;;;;;;;;;5010121;28;20042;-76
2022/02/09 13:01:55;;;;;;;1.33;0.65;;;;;;;;;;5008240;28;20022;-74
2022/02/09 13:04:37;;;;;;;1.10;0.50;;;;;;;;;;5004519;28;20466;-77
2022/02/09 13:07:09;;;;;;;1.52;0.55;;;;;;;;;;5005865;28;20030;-76
2022/02/09 13:09:35;;;;;;;1.23;0.52;;;;;;;;;;5011358;28;20032;-76
2022/02/09 13:12:00;;;;;;;0.68;0.45;;;;;;;;;;5017124;28;20463;-75
2022/02/09 13:14:39;;;;;;;3.08;0.50;;;;;;;;;;5016986;28;20026;-73
2022/02/09 13:17:40;;;;;;;0.82;0.50;;;;;;;;;;5017483;28;20033;-75
2022/02/09 13:22:59;;;;;;;1.60;0.65;;;;;;;;;;5010021;28;20080;-73
2022/02/09 14:10:38;;;;;;;2.22;1.23;;;;;;;;;;5014024;28;20105;-73
2022/02/09 14:15:32;;;;;;;1.42;0.57;;;;;;;;;;5013380;28;20095;-75
2022/02/09 14:23:59;;;;;;;1.27;0.30;;;;;;;;;;4951624;29;20148;-74
2022/02/09 14:48:12;;;;;;;2.65;0.50;;;;;;;;;;4946004;29;20114;-74
2022/02/09 14:53:32;;;;;;;2.33;0.70;;;;;;;;;;4951573;29;20097;-74
2022/02/09 14:58:41;;;;;;;0.90;0.60;;;;;;;;;;4962392;28;20037;-74
2022/02/09 15:01:22;;;;;;;1.75;0.70;;;;;;;;;;4993093;28;20030;-75
2022/02/09 15:06:30;;;;;;;3.00;0.60;;;;;;;;;;4993882;28;20053;-74
2022/02/09 15:09:11;;;;;;;2.35;0.60;;;;;;;;;;4991770;28;20092;-73
2022/02/09 15:11:57;;;;;;;1.20;0.40;;;;;;;;;;4993153;28;20038;-74
2022/02/09 15:15:00;;;;;;;0.95;0.55;;;;;;;;;;4992668;28;20030;-77
2022/02/09 15:22:32;;;;;;;2.30;0.70;;;;;;;;;;4993294;28;20176;-76
2022/02/09 15:24:57;;;;;;;1.38;0.40;;;;;;;;;;4992640;28;20034;-76
2022/02/09 15:27:22;;;;;;;0.75;0.43;;;;;;;;;;4992491;28;20118;-76
2022/02/09 15:29:49;;;;;;;0.90;0.60;;;;;;;;;;4992621;28;20076;-77
2022/02/09 15:32:30;;;;;;;0.90;0.50;;;;;;;;;;4994186;28;20093;-77
2022/02/09 15:35:00;;;;;;;0.75;0.60;;;;;;;;;;4993528;28;20096;-74
2022/02/09 15:37:40;;;;;;;1.23;0.73;;;;;;;;;;4992294;28;20464;-76
2022/02/09 15:40:13;;;;;;;4.07;1.08;;;;;;;;;;4993328;28;20453;-75
2022/02/09 15:56:24;;;;;;;2.38;0.73;;;;;;;;;;4968648;28;20104;-79
2022/02/09 16:09:36;;;;;;;2.20;0.85;;;;;;;;;;4965899;28;20027;-79
2022/02/09 16:44:19;;;;;;;3.45;1.80;;;;;;;;;;4999339;28;20052;-79
2022/02/09 16:46:52;;;;;;;6.20;1.95;;;;;;;;;;4993084;28;20033;-80
2022/02/09 16:49:34;;;;;;;4.78;1.83;;;;;;;;;;4999200;28;20460;-81
2022/02/09 16:52:10;;;;;;;4.22;2.05;;;;;;;;;;4994329;28;20069;-80
2022/02/09 17:21:12;;;;;;;6.20;2.08;;;;;;;;;;4956207;29;20159;-77
2022/02/09 17:23:38;;;;;;;6.07;2.17;;;;;;;;;;4938577;29;20071;-79
2022/02/09 17:26:03;;;;;;;6.25;2.58;;;;;;;;;;4936585;29;20035;-77
2022/02/09 17:28:31;;;;;;;3.88;1.80;;;;;;;;;;4954117;29;20054;-78
2022/02/09 17:36:13;;;;;;;8.18;3.28;;;;;;;;;;4955927;28;20103;-77
2022/02/09 17:38:53;;;;;;;7.28;3.13;;;;;;;;;;5014245;28;20538;-77
2022/02/09 17:57:51;;;;;;;13.18;5.00;;;;;;;;;;5011289;28;20037;-74
2022/02/09 18:00:16;;;;;;;15.38;5.05;;;;;;;;;;5012626;28;20032;-75
2022/02/09 18:02:43;;;;;;;16.20;5.90;;;;;;;;;;5007532;28;20413;-78
2022/02/09 18:05:16;;;;;;;16.30;7.35;;;;;;;;;;5007875;28;20018;-75
2022/02/09 18:07:43;;;;;;;12.88;6.10;;;;;;;;;;5008231;28;20031;-80
2022/02/09 18:13:27;;;;;;;17.15;7.32;;;;;;;;;;4946922;28;20047;-79
2022/02/09 18:27:23;;;;;;;17.85;7.35;;;;;;;;;;4937697;29;20034;-73
2022/02/09 18:47:56;;;;;;;16.67;7.43;;;;;;;;;;4887372;29;20127;-74
2022/02/09 18:59:22;;;;;;;19.63;7.90;;;;;;;;;;4866553;29;20106;-76
2022/02/09 19:04:22;;;;;;;23.40;9.68;;;;;;;;;;4873994;29;20027;-76
2022/02/09 19:14:36;;;;;;;22.42;8.98;;;;;;;;;;4920621;29;20531;-77
2022/02/09 19:17:08;;;;;;;19.88;8.65;;;;;;;;;;4925665;29;20363;-75
2022/02/09 19:20:20;;;;;;;16.67;8.50;;;;;;;;;;4928640;29;20023;-76
2022/02/09 19:26:20;;;;;;;18.77;8.70;;;;;;;;;;5010711;28;20045;-76
2022/02/09 19:28:56;;;;;;;18.52;9.32;;;;;;;;;;5011124;28;20540;-75
2022/02/09 19:30:52;;;;;;;13.55;7.35;;;;;;;;;;5003182;28;20056;-75
2022/02/09 19:41:57;;;;;;;11.52;6.13;;;;;;;;;;5001059;28;20137;-75
2022/02/09 19:44:54;;;;;;;15.88;7.07;;;;;;;;;;5004491;28;20160;-77
2022/02/09 19:47:03;;;;;;;14.43;7.55;;;;;;;;;;5003406;28;20080;-74
2022/02/09 19:57:22;;;;;;;12.70;6.68;;;;;;;;;;4968091;28;20045;-77
2022/02/09 19:59:49;;;;;;;16.58;7.68;;;;;;;;;;4968979;28;20030;-75
2022/02/09 20:02:16;;;;;;;12.93;6.82;;;;;;;;;;4969979;28;20026;-75
2022/02/09 20:04:41;;;;;;;11.32;7.07;;;;;;;;;;4966709;28;20027;-78
2022/02/09 20:07:07;;;;;;;15.35;6.95;;;;;;;;;;4968542;28;20113;-77
2022/02/09 20:09:32;;;;;;;15.63;7.53;;;;;;;;;;4968284;28;20015;-76
2022/02/09 20:11:57;;;;;;;12.10;7.47;;;;;;;;;;4967971;28;20050;-81
2022/02/09 20:14:23;;;;;;;16.35;7.80;;;;;;;;;;4970743;28;20031;-81
2022/02/09 20:16:48;;;;;;;13.77;6.72;;;;;;;;;;4972349;28;20027;-81
2022/02/09 20:19:13;;;;;;;14.75;6.35;;;;;;;;;;4970847;28;20027;-80
2022/02/09 20:21:39;;;;;;;9.82;5.35;;;;;;;;;;4970701;28;20423;-78
2022/02/09 20:24:07;;;;;;;11.30;5.40;;;;;;;;;;4972260;28;20478;-82
2022/02/09 20:26:32;;;;;;;9.32;4.93;;;;;;;;;;4973371;28;20608;-81
2022/02/09 20:29:03;;;;;;;10.90;4.50;;;;;;;;;;4969895;28;20102;-75
2022/02/09 20:31:33;;;;;;;7.05;4.03;;;;;;;;;;4967475;28;20038;-78
2022/02/09 20:34:09;;;;;;;6.68;3.53;;;;;;;;;;4986872;28;20109;-75
2022/02/09 20:36:35;;;;;;;8.02;4.47;;;;;;;;;;5010231;28;20034;-78
2022/02/09 20:39:01;;;;;;;8.82;4.20;;;;;;;;;;5010975;28;20495;-77
2022/02/09 20:41:26;;;;;;;10.40;4.18;;;;;;;;;;5010305;28;20044;-75
2022/02/09 20:44:16;;;;;;;7.72;3.42;;;;;;;;;;5010567;28;20026;-77
2022/02/09 20:46:43;;;;;;;7.65;4.30;;;;;;;;;;5010223;28;20060;-76
2022/02/09 20:49:09;;;;;;;7.32;3.90;;;;;;;;;;5010528;28;20025;-76
2022/02/09 20:51:35;;;;;;;10.02;4.00;;;;;;;;;;5010381;28;20040;-77
2022/02/09 20:54:00;;;;;;;8.77;3.80;;;;;;;;;;5011048;28;20125;-77
2022/02/09 20:56:25;;;;;;;7.13;4.18;;;;;;;;;;5003846;28;20030;-75
2022/02/09 20:58:57;;;;;;;6.70;3.42;;;;;;;;;;5010886;28;20610;-77
2022/02/09 21:01:28;;;;;;;6.35;3.53;;;;;;;;;;5009568;28;20401;-76
2022/02/09 21:04:01;;;;;;;7.80;3.50;;;;;;;;;;5010131;28;20113;-77
2022/02/09 21:11:24;;;;;;;8.98;4.30;;;;;;;;;;5010846;28;20397;-76
2022/02/09 21:24:09;;;;;;;11.65;4.55;;;;;;;;;;5012689;28;20377;-77
2022/02/09 21:26:41;;;;;;;7.22;4.38;;;;;;;;;;5009392;28;20081;-75
2022/02/09 21:45:55;;;;;;;7.95;4.10;;;;;;;;;;5014357;28;20033;-77
2022/02/09 22:01:34;;;;;;;5.68;3.05;;;;;;;;;;5014079;28;20125;-74
2022/02/09 22:26:11;;;;;;;5.47;2.90;;;;;;;;;;5015107;28;20034;-80
2022/02/09 22:28:05;;;;;;;7.95;3.50;;;;;;;;;;5016137;28;20045;-74
2022/02/09 22:31:16;;;;;;;5.68;3.20;;;;;;;;;;4999683;28;20030;-75
2022/02/09 22:50:08;;;;;;;9.48;4.45;;;;;;;;;;5012267;28;20018;-72
2022/02/09 22:55:12;;;;;;;7.22;3.35;;;;;;;;;;5013653;28;20080;-74
2022/02/09 22:57:51;;;;;;;7.38;3.55;;;;;;;;;;5015468;28;20049;-74
2022/02/09 23:00:36;;;;;;;6.03;3.22;;;;;;;;;;5013568;28;20077;-74
2022/02/09 23:03:01;;;;;;;7.03;3.45;;;;;;;;;;5008261;28;20452;-74
2022/02/09 23:14:09;;;;;;;7.93;3.65;;;;;;;;;;4913168;29;20650;-73
2022/02/09 23:17:10;;;;;;;9.13;4.15;;;;;;;;;;4911018;29;20455;-73
2022/02/09 23:20:23;;;;;;;6.85;4.05;;;;;;;;;;4908255;29;20585;-74
2022/02/09 23:28:38;;;;;;;7.63;3.80;;;;;;;;;;4910388;29;20083;-72
